RCSS/TSA METAR and TAF weather

Enter ICAO airport designator
Station Type Date Time Source
RCSS METAR 2019/07/20 05:08 UTC NOAA

RCSS 200508Z VRB03KT 9999 FEW020 SCT040 BKN080 36/25 Q1004 WS R10 NOSIG RMK A2965


Station Type Date Time Source
RCSS Decoded METAR 2019/07/20 05:08 UTC NOAA

Sungshan / Taipei, Taiwan (RCSS) 25-04N 121-33E
Jul 20, 2019 - 01:08 AM EDT / 2019.07.20 0508 UTC
Wind: Variable at 3 MPH (3 KT):0
Visibility: greater than 7 mile(s):0
Sky conditions: mostly cloudy
Temperature: 96 F (36 C)
Heat index: 109.9 F (43.3 C):1
Dew Point: 77 F (25 C)
Relative Humidity: 53%
Pressure (altimeter): 29.65 in. Hg (1004 hPa)
ob: RCSS 200508Z VRB03KT 9999 FEW020 SCT040 BKN080 36/25 Q1004 WS R10 NOSIG RMK A2965
cycle: 5

Station Type Date Time Source
RCSS TAF 2019/07/20 06:03 UTC NOAA

TAF RCSS 200500Z 2006/2106 09005KT 9999 FEW020
BECMG 2023/2101 30005KT
TEMPO 2105/2106 12009G19KT 2200 TSRA SCT008 BKN014 FEW015CB BKN030

Example: see airport list